createdAt,value
2017-06-10T00:00:55.332Z,1032.48
2017-06-10T00:01:55.327Z,1032.53
2017-06-10T00:02:55.323Z,1032.54
2017-06-10T00:03:55.321Z,1032.56
2017-06-10T00:04:55.315Z,1032.62
2017-06-10T00:05:55.311Z,1032.65
2017-06-10T00:06:55.307Z,1032.69
2017-06-10T00:07:55.302Z,1032.73
2017-06-10T00:08:55.298Z,1032.75
2017-06-10T00:09:55.294Z,1032.76
2017-06-10T00:10:55.290Z,1032.83
2017-06-10T00:11:55.285Z,1032.87
2017-06-10T00:12:55.281Z,1032.86
2017-06-10T00:13:55.278Z,1032.88
2017-06-10T00:14:55.274Z,1032.84
2017-06-10T00:15:55.269Z,1032.91
2017-06-10T00:16:55.265Z,1032.93
2017-06-10T00:17:55.261Z,1032.94
2017-06-10T00:18:55.256Z,1032.94
2017-06-10T00:19:55.252Z,1032.95
2017-06-10T00:20:55.249Z,1032.95
2017-06-10T00:21:55.245Z,1032.96
2017-06-10T00:22:55.239Z,1032.95
2017-06-10T00:23:55.237Z,1032.89
2017-06-10T00:24:55.232Z,1032.84
2017-06-10T00:25:55.227Z,1032.85
2017-06-10T00:26:55.225Z,1032.82
2017-06-10T00:27:55.220Z,1032.82
2017-06-10T00:28:55.216Z,1032.86
2017-06-10T00:29:55.211Z,1032.86
2017-06-10T00:30:55.207Z,1032.87
2017-06-10T00:31:55.203Z,1032.86
2017-06-10T00:32:55.199Z,1032.88
2017-06-10T00:33:55.194Z,1032.89
2017-06-10T00:34:55.190Z,1032.87
2017-06-10T00:35:55.186Z,1032.91
2017-06-10T00:36:55.185Z,1032.89
2017-06-10T00:37:55.180Z,1032.92
2017-06-10T00:38:55.173Z,1032.96
2017-06-10T00:39:55.169Z,1032.96
2017-06-10T00:40:55.164Z,1032.94
2017-06-10T00:41:55.160Z,1032.94
2017-06-10T00:42:55.156Z,1032.91
2017-06-10T00:43:55.152Z,1032.94
2017-06-10T00:44:55.150Z,1032.96
2017-06-10T00:45:55.143Z,1032.99
2017-06-10T00:46:55.139Z,1033.06
2017-06-10T00:47:55.134Z,1033.12
2017-06-10T00:48:55.130Z,1033.18
2017-06-10T00:49:55.126Z,1033.22
2017-06-10T00:50:55.121Z,1033.23
2017-06-10T00:51:55.117Z,1033.25
2017-06-10T00:52:55.113Z,1033.27
2017-06-10T00:53:55.108Z,1033.29
2017-06-10T00:54:55.104Z,1033.3
2017-06-10T00:55:55.099Z,1033.35
2017-06-10T00:56:55.095Z,1033.35
2017-06-10T00:57:55.090Z,1033.38
2017-06-10T00:58:55.085Z,1033.39
2017-06-10T00:59:55.082Z,1033.38
2017-06-10T01:00:55.077Z,1033.39
2017-06-10T01:01:55.073Z,1033.36
2017-06-10T01:02:55.068Z,1033.33
2017-06-10T01:03:55.067Z,1033.34
2017-06-10T01:04:55.059Z,1033.42
2017-06-10T01:05:55.055Z,1033.38
2017-06-10T01:06:55.050Z,1033.39
2017-06-10T01:07:55.045Z,1033.38
2017-06-10T01:08:55.041Z,1033.38
2017-06-10T01:09:55.036Z,1033.33
2017-06-10T01:10:55.032Z,1033.3
2017-06-10T01:11:55.027Z,1033.28
2017-06-10T01:12:55.023Z,1033.25
2017-06-10T01:13:55.018Z,1033.27
2017-06-10T01:14:55.013Z,1033.27
2017-06-10T01:15:55.009Z,1033.29
2017-06-10T01:16:55.005Z,1033.31
2017-06-10T01:17:55.000Z,1033.27
2017-06-10T01:18:54.996Z,1033.31
2017-06-10T01:19:54.992Z,1033.26
2017-06-10T01:20:54.986Z,1033.21
2017-06-10T01:21:54.982Z,1033.25
2017-06-10T01:22:54.978Z,1033.23
2017-06-10T01:23:54.974Z,1033.19
2017-06-10T01:24:54.969Z,1033.19
2017-06-10T01:25:54.965Z,1033.15
2017-06-10T01:26:54.960Z,1033.08
2017-06-10T01:27:54.956Z,1033.05
2017-06-10T01:28:54.951Z,1033.07
2017-06-10T01:29:54.947Z,1033.1
2017-06-10T01:30:54.943Z,1033.08
2017-06-10T01:31:54.939Z,1033.06
2017-06-10T01:32:54.934Z,1033.01
2017-06-10T01:33:54.930Z,1033.04
2017-06-10T01:34:54.927Z,1033.06
2017-06-10T01:35:54.921Z,1033.07
2017-06-10T01:36:54.917Z,1033.11
2017-06-10T01:37:54.913Z,1033.12
2017-06-10T01:38:54.909Z,1033.11
2017-06-10T01:39:54.904Z,1033.11
2017-06-10T01:40:54.900Z,1033.1
2017-06-10T01:41:54.896Z,1033.09
2017-06-10T01:42:54.891Z,1033.07
2017-06-10T01:43:54.887Z,1033.04
2017-06-10T01:44:54.883Z,1033.06
2017-06-10T01:45:54.880Z,1033.08
2017-06-10T01:46:54.875Z,1033.12
2017-06-10T01:47:54.871Z,1033.16
2017-06-10T01:48:54.867Z,1033.19
2017-06-10T01:49:54.866Z,1033.14
2017-06-10T01:50:54.858Z,1033.18
2017-06-10T01:51:54.854Z,1033.18
2017-06-10T01:52:54.851Z,1033.23
2017-06-10T01:53:54.846Z,1033.28
2017-06-10T01:54:54.842Z,1033.33
2017-06-10T01:55:54.838Z,1033.34
2017-06-10T01:56:54.834Z,1033.37
2017-06-10T01:57:54.829Z,1033.37
2017-06-10T01:58:54.827Z,1033.42
2017-06-10T01:59:54.822Z,1033.43
2017-06-10T02:00:54.817Z,1033.45
2017-06-10T02:01:54.814Z,1033.44
2017-06-10T02:02:54.810Z,1033.5
2017-06-10T02:03:54.806Z,1033.52
2017-06-10T02:04:54.801Z,1033.57
2017-06-10T02:05:54.797Z,1033.61
2017-06-10T02:06:54.794Z,1033.65
2017-06-10T02:07:54.796Z,1033.7
2017-06-10T02:08:54.785Z,1033.73
2017-06-10T02:09:54.781Z,1033.77
2017-06-10T02:10:54.776Z,1033.77
2017-06-10T02:11:54.772Z,1033.73
2017-06-10T02:12:54.768Z,1033.7
2017-06-10T02:13:54.764Z,1033.65
2017-06-10T02:14:54.759Z,1033.56
2017-06-10T02:15:54.754Z,1033.47
2017-06-10T02:16:54.750Z,1033.45
2017-06-10T02:17:54.748Z,1033.4
2017-06-10T02:18:54.743Z,1033.36
2017-06-10T02:19:54.737Z,1033.35
2017-06-10T02:20:54.733Z,1033.37
2017-06-10T02:21:54.730Z,1033.35
2017-06-10T02:22:54.724Z,1033.39
2017-06-10T02:23:54.720Z,1033.39
2017-06-10T02:24:54.715Z,1033.44
2017-06-10T02:25:54.713Z,1033.5
2017-06-10T02:26:54.708Z,1033.56
2017-06-10T02:27:54.703Z,1033.57
2017-06-10T02:28:54.698Z,1033.56
2017-06-10T02:29:54.695Z,1033.62
2017-06-10T02:30:54.693Z,1033.63
2017-06-10T02:31:54.686Z,1033.64
2017-06-10T02:32:54.682Z,1033.67
2017-06-10T02:33:54.678Z,1033.72
2017-06-10T02:34:54.673Z,1033.74
2017-06-10T02:35:54.669Z,1033.69
2017-06-10T02:36:54.665Z,1033.69
2017-06-10T02:37:54.660Z,1033.74
2017-06-10T02:38:54.657Z,1033.74
2017-06-10T02:39:54.652Z,1033.8
2017-06-10T02:40:54.648Z,1033.77
2017-06-10T02:41:54.642Z,1033.81
2017-06-10T02:42:54.639Z,1033.84
2017-06-10T02:43:54.634Z,1033.86
2017-06-10T02:44:54.632Z,1033.87
2017-06-10T02:45:54.625Z,1033.92
2017-06-10T02:46:54.621Z,1033.92
2017-06-10T02:47:54.617Z,1033.97
2017-06-10T02:48:54.611Z,1033.97
2017-06-10T02:49:54.611Z,1033.97
2017-06-10T02:50:54.603Z,1033.92
2017-06-10T02:51:54.599Z,1033.98
2017-06-10T02:52:54.594Z,1033.94
2017-06-10T02:53:54.591Z,1033.96
2017-06-10T02:54:54.586Z,1033.96
2017-06-10T02:55:54.581Z,1033.97
2017-06-10T02:56:54.576Z,1034
2017-06-10T02:57:54.572Z,1034.01
2017-06-10T02:58:54.568Z,1034.06
2017-06-10T02:59:54.562Z,1034.06
2017-06-10T03:00:54.558Z,1034.07
2017-06-10T03:01:54.553Z,1034.08
2017-06-10T03:02:54.550Z,1034.06
2017-06-10T03:03:54.547Z,1034.04
2017-06-10T03:04:54.540Z,1034.05
2017-06-10T03:05:54.536Z,1034.07
2017-06-10T03:06:54.531Z,1034.07
2017-06-10T03:07:54.527Z,1034.08
2017-06-10T03:08:54.523Z,1034.09
2017-06-10T03:09:54.518Z,1034.12
2017-06-10T03:10:54.513Z,1034.09
2017-06-10T03:11:54.509Z,1034.09
2017-06-10T03:12:54.505Z,1034.1
2017-06-10T03:13:54.500Z,1034.07
2017-06-10T03:14:54.496Z,1034.1
2017-06-10T03:15:54.491Z,1034.06
2017-06-10T03:16:54.486Z,1034.04
2017-06-10T03:17:54.481Z,1034.01
2017-06-10T03:18:54.477Z,1034.06
2017-06-10T03:19:54.474Z,1034.03
2017-06-10T03:20:54.469Z,1034.03
2017-06-10T03:21:54.464Z,1034.05
2017-06-10T03:22:54.460Z,1034.03
2017-06-10T03:23:54.458Z,1034.02
2017-06-10T03:24:54.452Z,1033.97
2017-06-10T03:25:54.446Z,1033.95
2017-06-10T03:26:54.442Z,1033.93
2017-06-10T03:27:54.438Z,1033.9
2017-06-10T03:28:54.433Z,1033.85
2017-06-10T03:29:54.432Z,1033.87
2017-06-10T03:30:54.425Z,1033.8
2017-06-10T03:31:54.422Z,1033.84
2017-06-10T03:32:54.416Z,1033.83
2017-06-10T03:33:54.413Z,1033.81
2017-06-10T03:34:54.408Z,1033.79
2017-06-10T03:35:54.404Z,1033.74
2017-06-10T03:36:54.401Z,1033.75
2017-06-10T03:37:54.397Z,1033.74
2017-06-10T03:38:54.393Z,1033.75
2017-06-10T03:39:54.388Z,1033.76
2017-06-10T03:40:54.384Z,1033.76
2017-06-10T03:41:54.382Z,1033.73
2017-06-10T03:42:54.377Z,1033.77
2017-06-10T03:43:54.372Z,1033.78
2017-06-10T03:44:54.368Z,1033.78
2017-06-10T03:45:54.364Z,1033.77
2017-06-10T03:46:54.360Z,1033.78
2017-06-10T03:47:54.356Z,1033.77
2017-06-10T03:48:54.352Z,1033.73
2017-06-10T03:49:54.349Z,1033.82
2017-06-10T03:50:54.344Z,1033.89
2017-06-10T03:51:54.340Z,1033.97
2017-06-10T03:52:54.336Z,1033.96
2017-06-10T03:53:54.333Z,1034
2017-06-10T03:54:54.328Z,1034.08
2017-06-10T03:55:54.324Z,1034.09
2017-06-10T03:56:54.350Z,1034.08
2017-06-10T03:57:54.316Z,1033.79
2017-06-10T03:58:54.312Z,1033.72
2017-06-10T03:59:54.309Z,1033.74
2017-06-10T04:00:54.305Z,1033.59
2017-06-10T04:01:54.301Z,1033.45
2017-06-10T04:02:54.297Z,1033.31
2017-06-10T04:03:54.294Z,1033.25
2017-06-10T04:04:54.291Z,1033.21
2017-06-10T04:05:54.286Z,1033.19
2017-06-10T04:06:54.283Z,1033.2
2017-06-10T04:07:54.280Z,1033.1
2017-06-10T04:08:54.275Z,1032.95
2017-06-10T04:09:54.273Z,1032.63
2017-06-10T04:10:54.269Z,1032.58
2017-06-10T04:11:54.267Z,1032.57
2017-06-10T04:12:54.263Z,1032.46
2017-06-10T04:13:54.260Z,1032.44
2017-06-10T04:14:54.258Z,1032.43
2017-06-10T04:15:54.255Z,1032.39
2017-06-10T04:16:54.251Z,1032.38
2017-06-10T04:17:54.250Z,1032.29
2017-06-10T04:18:54.247Z,1032.2
2017-06-10T04:19:54.244Z,1031.99
2017-06-10T04:20:54.242Z,1031.69
2017-06-10T04:21:54.240Z,1031.26
2017-06-10T04:22:54.238Z,1030.97
2017-06-10T04:23:54.235Z,1030.7
2017-06-10T04:24:54.234Z,1030.45
2017-06-10T04:25:54.233Z,1030.18
2017-06-10T04:26:54.231Z,1030.01
2017-06-10T04:27:54.230Z,1029.86
2017-06-10T04:28:54.231Z,1029.7
2017-06-10T04:29:54.229Z,1029.48
2017-06-10T04:30:54.228Z,1029.35
2017-06-10T04:31:54.229Z,1029.13
2017-06-10T04:32:54.230Z,1029.01
2017-06-10T04:33:54.231Z,1028.86
2017-06-10T04:34:54.233Z,1028.7
2017-06-10T04:35:54.233Z,1028.6
2017-06-10T04:36:54.236Z,1028.49
2017-06-10T04:37:54.238Z,1028.39
2017-06-10T04:38:54.240Z,1028.26
2017-06-10T04:39:54.246Z,1028.09
2017-06-10T04:40:54.247Z,1027.99
2017-06-10T04:41:54.250Z,1027.86
2017-06-10T04:42:54.255Z,1027.75
2017-06-10T04:43:54.260Z,1027.69
2017-06-10T04:44:54.265Z,1027.58
2017-06-10T04:45:54.269Z,1027.49
2017-06-10T04:46:54.275Z,1027.42
2017-06-10T04:47:54.280Z,1027.36
2017-06-10T04:48:54.287Z,1027.28
2017-06-10T04:49:54.292Z,1027.28
2017-06-10T04:50:54.299Z,1027.25
2017-06-10T04:51:54.307Z,1027.22
2017-06-10T04:52:54.313Z,1027.08
2017-06-10T04:53:54.321Z,1027
2017-06-10T04:54:54.329Z,1026.92
2017-06-10T04:55:54.337Z,1026.82
2017-06-10T04:56:54.344Z,1026.79
2017-06-10T04:57:54.353Z,1026.72
2017-06-10T04:58:54.373Z,1026.68
2017-06-10T04:59:54.370Z,1026.55
2017-06-10T05:00:54.383Z,1026.44
2017-06-10T05:01:54.388Z,1026.4
2017-06-10T05:02:54.397Z,1026.4
2017-06-10T05:03:54.406Z,1026.39
2017-06-10T05:04:54.416Z,1026.38
2017-06-10T05:05:54.425Z,1026.39
2017-06-10T05:06:54.436Z,1026.4
2017-06-10T05:07:54.445Z,1026.32
2017-06-10T05:08:54.455Z,1026.26
2017-06-10T05:09:54.466Z,1026.22
2017-06-10T05:10:54.476Z,1026.25
2017-06-10T05:11:54.487Z,1026.27
2017-06-10T05:12:54.498Z,1026.26
2017-06-10T05:13:54.509Z,1026.28
2017-06-10T05:14:54.518Z,1026.23
2017-06-10T05:15:54.530Z,1026.18
2017-06-10T05:16:54.542Z,1026.13
2017-06-10T05:17:54.553Z,1026.1
2017-06-10T05:18:54.563Z,1026.01
2017-06-10T05:19:54.574Z,1025.97
2017-06-10T05:20:54.587Z,1026.05
2017-06-10T05:21:54.597Z,1026.08
2017-06-10T05:22:54.609Z,1026.1
2017-06-10T05:23:54.621Z,1026.15
2017-06-10T05:24:54.633Z,1026.17
2017-06-10T05:25:54.645Z,1026.17
2017-06-10T05:26:54.657Z,1026.14
2017-06-10T05:27:54.669Z,1026.21
2017-06-10T05:28:54.681Z,1026.24
2017-06-10T05:29:54.693Z,1026.26
2017-06-10T05:30:54.705Z,1026.3
2017-06-10T05:31:54.718Z,1026.34
2017-06-10T05:32:54.730Z,1026.3
2017-06-10T05:33:54.742Z,1026.21
2017-06-10T05:34:54.755Z,1026.12
2017-06-10T05:35:54.768Z,1026.14
2017-06-10T05:36:54.780Z,1026.18
2017-06-10T05:37:54.793Z,1026.19
2017-06-10T05:38:54.806Z,1026.27
2017-06-10T05:39:54.820Z,1026.33
2017-06-10T05:40:54.833Z,1026.31
2017-06-10T05:41:54.845Z,1026.25
2017-06-10T05:42:54.861Z,1026.22
2017-06-10T05:43:54.871Z,1026.12
2017-06-10T05:44:54.886Z,1026.14
2017-06-10T05:45:54.898Z,1026.18
2017-06-10T05:46:54.912Z,1026.18
2017-06-10T05:47:54.925Z,1026.22
2017-06-10T05:48:54.938Z,1026.13
2017-06-10T05:49:54.952Z,1026.07
2017-06-10T05:50:54.966Z,1026
2017-06-10T05:51:54.979Z,1025.9
2017-06-10T05:52:54.993Z,1025.94
2017-06-10T05:53:55.007Z,1025.91
2017-06-10T05:54:55.020Z,1025.81
2017-06-10T05:55:55.035Z,1025.82
2017-06-10T05:56:55.049Z,1025.86
2017-06-10T05:57:55.064Z,1025.89
2017-06-10T05:58:55.077Z,1025.91
2017-06-10T05:59:55.091Z,1025.89
2017-06-10T06:00:55.106Z,1026.08
2017-06-10T06:01:55.121Z,1025.87
2017-06-10T06:02:55.135Z,1025.67
2017-06-10T06:03:55.154Z,1025.48
2017-06-10T06:04:55.166Z,1025.38
2017-06-10T06:05:55.178Z,1025.25
2017-06-10T06:06:55.194Z,1025.12
2017-06-10T06:07:55.209Z,1025
2017-06-10T06:08:55.224Z,1024.92
2017-06-10T06:09:55.239Z,1024.84
2017-06-10T06:10:55.254Z,1024.83
2017-06-10T06:11:55.269Z,1024.83
2017-06-10T06:12:55.287Z,1024.84
2017-06-10T06:13:55.302Z,1024.81
2017-06-10T06:14:55.317Z,1024.74
2017-06-10T06:15:55.333Z,1024.67
2017-06-10T06:16:55.349Z,1024.62
2017-06-10T06:17:55.365Z,1024.54
2017-06-10T06:18:55.386Z,1024.56
2017-06-10T06:19:55.398Z,1024.57
2017-06-10T06:20:55.414Z,1024.58
2017-06-10T06:21:55.430Z,1024.55
2017-06-10T06:22:55.447Z,1024.5
2017-06-10T06:23:55.465Z,1024.52
2017-06-10T06:24:55.480Z,1024.57
2017-06-10T06:25:55.498Z,1024.57
2017-06-10T06:26:55.515Z,1024.66
2017-06-10T06:27:55.531Z,1024.73
2017-06-10T06:28:55.548Z,1024.77
2017-06-10T06:29:55.566Z,1024.81
2017-06-10T06:30:55.583Z,1024.95
2017-06-10T06:31:55.598Z,1025.01
2017-06-10T06:32:55.617Z,1025.02
2017-06-10T06:33:55.634Z,1025.11
2017-06-10T06:34:55.651Z,1025.19
2017-06-10T06:35:55.668Z,1025.31
2017-06-10T06:36:55.684Z,1025.5
2017-06-10T06:37:55.704Z,1025.61
2017-06-10T06:38:55.720Z,1025.67
2017-06-10T06:39:55.736Z,1025.75
2017-06-10T06:40:55.754Z,1025.96
2017-06-10T06:41:55.771Z,1026.04
2017-06-10T06:42:55.787Z,1026.17
2017-06-10T06:43:55.804Z,1026.15
2017-06-10T06:44:55.821Z,1026.12
2017-06-10T06:45:55.838Z,1026.19
2017-06-10T06:46:55.855Z,1026.23
2017-06-10T06:47:55.871Z,1026.18
2017-06-10T06:48:55.888Z,1026.15
2017-06-10T06:49:55.904Z,1026.12
2017-06-10T06:50:55.920Z,1026.18
2017-06-10T06:51:55.937Z,1026.22
2017-06-10T06:52:55.954Z,1026.27
2017-06-10T06:53:55.969Z,1026.29
2017-06-10T06:54:55.986Z,1026.28
2017-06-10T06:55:56.001Z,1026.33
2017-06-10T06:56:56.017Z,1026.41
2017-06-10T06:57:56.033Z,1026.38
2017-06-10T06:58:56.049Z,1026.33
2017-06-10T06:59:56.066Z,1026.33
2017-06-10T07:00:56.085Z,1026.3
2017-06-10T07:01:56.097Z,1026.24
2017-06-10T07:02:56.113Z,1026.21
2017-06-10T07:03:56.129Z,1026.19
2017-06-10T07:04:56.144Z,1026.27
2017-06-10T07:05:56.160Z,1026.27
2017-06-10T07:06:56.176Z,1026.26
2017-06-10T07:07:56.190Z,1026.31
2017-06-10T07:08:56.207Z,1026.34
2017-06-10T07:09:56.223Z,1026.34
2017-06-10T07:10:56.239Z,1026.38
2017-06-10T07:11:56.254Z,1026.37
2017-06-10T07:12:56.270Z,1026.3
2017-06-10T07:13:56.288Z,1026.36
2017-06-10T07:14:56.302Z,1026.42
2017-06-10T07:15:56.317Z,1026.42
2017-06-10T07:16:56.332Z,1026.41
2017-06-10T07:17:56.348Z,1026.43
2017-06-10T07:18:56.363Z,1026.44
2017-06-10T07:19:56.379Z,1026.41
2017-06-10T07:20:56.395Z,1026.39
2017-06-10T07:21:56.410Z,1026.43
2017-06-10T07:22:56.428Z,1026.35
2017-06-10T07:23:56.441Z,1026.3
2017-06-10T07:24:56.457Z,1026.32
2017-06-10T07:25:56.473Z,1026.26
2017-06-10T07:26:56.487Z,1026.3
2017-06-10T07:27:56.504Z,1026.24
2017-06-10T07:28:56.520Z,1025.88
2017-06-10T07:29:56.535Z,1026.2
2017-06-10T07:30:56.551Z,1026.27
2017-06-10T07:31:56.567Z,1026.22
2017-06-10T07:32:56.583Z,1026.23
2017-06-10T07:33:56.598Z,1026.42
2017-06-10T07:34:56.614Z,1026.53
2017-06-10T07:35:56.629Z,1026.73
2017-06-10T07:36:56.646Z,1026.57
2017-06-10T07:37:56.661Z,1026.46
2017-06-10T07:38:56.677Z,1026.49
2017-06-10T07:39:56.693Z,1026.49
2017-06-10T07:40:56.708Z,1026.58
2017-06-10T07:41:56.724Z,1026.66
2017-06-10T07:42:56.741Z,1026.6
2017-06-10T07:43:56.757Z,1026.5
2017-06-10T07:44:56.772Z,1026.47
2017-06-10T07:45:56.788Z,1026.4
2017-06-10T07:46:56.806Z,1026.59
2017-06-10T07:47:56.820Z,1026.58
2017-06-10T07:48:56.836Z,1026.68
2017-06-10T07:49:56.852Z,1026.68
2017-06-10T07:50:56.868Z,1026.57
2017-06-10T07:51:56.883Z,1026.46
2017-06-10T07:52:56.899Z,1025.57
2017-06-10T07:53:56.915Z,1026.91
2017-06-10T07:54:56.931Z,1028.51
2017-06-10T07:55:56.946Z,1028.02
2017-06-10T07:56:56.961Z,1028.72
2017-06-10T07:57:56.976Z,1029.3
2017-06-10T07:58:56.991Z,1029.34
2017-06-10T07:59:57.004Z,1029.15
2017-06-10T08:00:57.019Z,1029.49
2017-06-10T08:01:57.032Z,1028.9
2017-06-10T08:02:57.047Z,1029.3
2017-06-10T08:03:57.059Z,1028.62
2017-06-10T08:04:57.072Z,1028.1
2017-06-10T08:05:57.085Z,1026.98
2017-06-10T08:06:57.101Z,1027.58
2017-06-10T08:07:57.112Z,1027.37
2017-06-10T08:08:57.126Z,1027.08
2017-06-10T08:09:57.139Z,1026.27
2017-06-10T08:10:57.152Z,1027.45
2017-06-10T08:11:57.166Z,1028.56
2017-06-10T08:12:57.179Z,1028.79
2017-06-10T08:13:57.192Z,1029.25
2017-06-10T08:14:57.206Z,1029.72
2017-06-10T08:15:57.218Z,1029.94
2017-06-10T08:16:57.231Z,1029.36
2017-06-10T08:17:57.242Z,1029.57
2017-06-10T08:18:57.255Z,1028.85
2017-06-10T08:19:57.267Z,1028.16
2017-06-10T08:20:57.280Z,1028.32
2017-06-10T08:21:57.293Z,1028.7
2017-06-10T08:22:57.305Z,1029
2017-06-10T08:23:57.317Z,1029.85
2017-06-10T08:24:57.328Z,1028.89
2017-06-10T08:25:57.339Z,1027.99
2017-06-10T08:26:57.354Z,1029.08
2017-06-10T08:27:57.365Z,1028.2
2017-06-10T08:28:57.376Z,1027.58
2017-06-10T08:29:57.387Z,1026.86
2017-06-10T08:30:57.401Z,1026.83
2017-06-10T08:31:57.412Z,1027.13
2017-06-10T08:32:57.424Z,1026.47
2017-06-10T08:33:57.436Z,1026.55
2017-06-10T08:34:57.449Z,1026.21
2017-06-10T08:35:57.461Z,1025.9
2017-06-10T08:36:57.475Z,1025.5
2017-06-10T08:37:57.487Z,1026.7
2017-06-10T08:38:57.500Z,1027.65
2017-06-10T08:39:57.512Z,1028.27
2017-06-10T08:40:57.526Z,1028.62
2017-06-10T08:41:57.539Z,1027.88
2017-06-10T08:42:57.550Z,1027.35
2017-06-10T08:43:57.565Z,1027.97
2017-06-10T08:44:57.576Z,1028.75
2017-06-10T08:45:57.596Z,1029.03
2017-06-10T08:46:57.601Z,1028.8
2017-06-10T08:47:57.613Z,1028.01
2017-06-10T08:48:57.625Z,1027.5
2017-06-10T08:49:57.638Z,1027.66
2017-06-10T08:50:57.949Z,1028.4
2017-06-10T08:51:57.662Z,1028.74
2017-06-10T08:52:57.673Z,1029.3
2017-06-10T08:53:57.685Z,1030.06
2017-06-10T08:54:57.696Z,1030.8
2017-06-10T08:55:57.708Z,1031.01
2017-06-10T08:56:57.719Z,1031.38
2017-06-10T08:57:57.730Z,1031.69
2017-06-10T08:58:57.741Z,1031.81
2017-06-10T08:59:57.751Z,1031.84
2017-06-10T09:00:57.763Z,1031.97
2017-06-10T09:01:57.772Z,1032.01
2017-06-10T09:02:57.782Z,1031.99
2017-06-10T09:03:57.791Z,1032.14
2017-06-10T09:04:57.804Z,1032.23
2017-06-10T09:05:57.811Z,1032.26
2017-06-10T09:06:57.821Z,1032.35
2017-06-10T09:07:57.831Z,1032.48
2017-06-10T09:08:57.838Z,1032.61
2017-06-10T09:09:57.847Z,1032.89
2017-06-10T09:10:57.856Z,1033.07
2017-06-10T09:11:57.864Z,1033.2
2017-06-10T09:12:57.872Z,1033.37
2017-06-10T09:13:57.884Z,1033.55
2017-06-10T09:14:57.888Z,1033.65
2017-06-10T09:15:57.895Z,1033.6
2017-06-10T09:16:57.905Z,1033.58
2017-06-10T09:17:57.910Z,1033.45
2017-06-10T09:18:57.919Z,1033.36
2017-06-10T09:19:57.924Z,1033.29
2017-06-10T09:20:57.932Z,1033.3
2017-06-10T09:21:57.939Z,1033.29
2017-06-10T09:22:57.946Z,1033.38
2017-06-10T09:23:57.951Z,1033.52
2017-06-10T09:24:57.958Z,1033.74
2017-06-10T09:25:57.964Z,1033.86
2017-06-10T09:26:57.970Z,1033.91
2017-06-10T09:27:57.976Z,1033.86
2017-06-10T09:28:57.983Z,1033.84
2017-06-10T09:29:57.991Z,1033.9
2017-06-10T09:30:57.994Z,1034
2017-06-10T09:31:58.001Z,1033.97
2017-06-10T09:32:58.006Z,1033.98
2017-06-10T09:33:58.012Z,1034.04
2017-06-10T09:34:58.017Z,1034.07
2017-06-10T09:35:58.022Z,1034.09
2017-06-10T09:36:58.027Z,1034.02
2017-06-10T09:37:58.032Z,1033.98
2017-06-10T09:38:58.037Z,1033.94
2017-06-10T09:39:58.043Z,1033.9
2017-06-10T09:40:58.050Z,1033.98
2017-06-10T09:41:58.053Z,1034.14
2017-06-10T09:42:58.059Z,1034.19
2017-06-10T09:43:58.063Z,1034.21
2017-06-10T09:44:58.068Z,1034.32
2017-06-10T09:45:58.074Z,1034.36
2017-06-10T09:46:58.078Z,1034.31
2017-06-10T09:47:58.083Z,1034.25
2017-06-10T09:48:58.087Z,1034.26
2017-06-10T09:49:58.091Z,1034.07
2017-06-10T09:50:58.097Z,1033.95
2017-06-10T09:51:58.100Z,1033.76
2017-06-10T09:52:58.106Z,1033.75
2017-06-10T09:53:58.110Z,1033.66
2017-06-10T09:54:58.115Z,1033.69
2017-06-10T09:55:58.121Z,1033.72
2017-06-10T09:56:58.124Z,1033.77
2017-06-10T09:57:58.129Z,1033.73
2017-06-10T09:58:58.135Z,1033.65
2017-06-10T09:59:58.139Z,1033.67
2017-06-10T10:00:58.144Z,1033.7
2017-06-10T10:01:58.149Z,1033.93
2017-06-10T10:02:58.154Z,1034.05
2017-06-10T10:03:58.160Z,1034.07
2017-06-10T10:04:58.164Z,1034.15
2017-06-10T10:05:58.168Z,1034.21
2017-06-10T10:06:58.172Z,1034.22
2017-06-10T10:07:58.177Z,1034.19
2017-06-10T10:08:58.181Z,1034.08
2017-06-10T10:09:58.187Z,1034.02
2017-06-10T10:10:58.190Z,1034.01
2017-06-10T10:11:58.194Z,1033.88
2017-06-10T10:12:58.199Z,1033.96
2017-06-10T10:13:58.204Z,1033.97
2017-06-10T10:14:58.207Z,1033.89
2017-06-10T10:15:58.213Z,1033.88
2017-06-10T10:16:58.217Z,1033.84
2017-06-10T10:17:58.222Z,1033.93
2017-06-10T10:18:58.225Z,1033.91
2017-06-10T10:19:58.230Z,1033.87
2017-06-10T10:20:58.239Z,1033.84
2017-06-10T10:21:58.239Z,1033.88
2017-06-10T10:22:58.243Z,1033.98
2017-06-10T10:23:58.248Z,1033.94
2017-06-10T10:24:58.253Z,1033.98
2017-06-10T10:25:58.256Z,1033.91
2017-06-10T10:26:58.263Z,1033.95
2017-06-10T10:27:58.267Z,1033.91
2017-06-10T10:28:58.269Z,1033.78
2017-06-10T10:29:58.274Z,1033.65
2017-06-10T10:30:58.280Z,1033.6
2017-06-10T10:31:58.284Z,1033.43
2017-06-10T10:32:58.288Z,1033.19
2017-06-10T10:34:58.298Z,1033.03
2017-06-10T10:35:58.302Z,1033.05
2017-06-10T10:36:58.306Z,1033.1
2017-06-10T10:37:58.311Z,1033.16
2017-06-10T10:38:58.317Z,1033.18
2017-06-10T10:39:58.321Z,1033.16
2017-06-10T10:40:58.325Z,1033.15
2017-06-10T10:41:58.331Z,1033.16
2017-06-10T10:42:58.336Z,1033.17
2017-06-10T10:43:58.340Z,1033.23
2017-06-10T10:44:58.346Z,1033.31
2017-06-10T10:45:58.351Z,1033.35
2017-06-10T10:46:58.356Z,1033.35
2017-06-10T10:47:58.361Z,1033.5
2017-06-10T10:48:58.366Z,1033.63
2017-06-10T10:49:58.371Z,1033.62
2017-06-10T10:50:58.375Z,1033.63
2017-06-10T10:51:58.380Z,1033.66
2017-06-10T10:52:58.387Z,1033.71
2017-06-10T10:53:58.390Z,1033.77
2017-06-10T10:54:58.394Z,1033.7
2017-06-10T10:55:58.400Z,1033.79
2017-06-10T10:56:58.405Z,1033.72
2017-06-10T10:57:58.409Z,1033.79
2017-06-10T10:58:58.413Z,1033.87
2017-06-10T10:59:58.418Z,1033.79
2017-06-10T11:00:58.423Z,1033.67
2017-06-10T11:01:58.426Z,1033.65
2017-06-10T11:02:58.430Z,1033.62
2017-06-10T11:03:58.435Z,1033.59
2017-06-10T11:04:58.441Z,1033.65
2017-06-10T11:05:58.443Z,1033.73
2017-06-10T11:06:58.448Z,1033.75
2017-06-10T11:07:58.453Z,1033.73
2017-06-10T11:08:58.457Z,1033.56
2017-06-10T11:09:58.461Z,1033.64
2017-06-10T11:10:58.468Z,1033.66
2017-06-10T11:11:58.470Z,1033.63
2017-06-10T11:12:58.473Z,1033.65
2017-06-10T11:13:58.477Z,1033.78
2017-06-10T11:14:58.482Z,1033.87
2017-06-10T11:15:58.486Z,1033.98
2017-06-10T11:16:58.489Z,1034.14
2017-06-10T11:17:58.494Z,1034.15
2017-06-10T11:18:58.497Z,1034.1
2017-06-10T11:19:58.502Z,1034.14
2017-06-10T11:20:58.504Z,1034.12
2017-06-10T11:21:58.508Z,1034.12
2017-06-10T11:22:58.512Z,1034.26
2017-06-10T11:23:58.515Z,1034.26
2017-06-10T11:24:58.518Z,1034.23
2017-06-10T11:25:58.522Z,1034.26
2017-06-10T11:26:58.527Z,1034.18
2017-06-10T11:27:58.527Z,1034.02
2017-06-10T11:28:58.532Z,1033.94
2017-06-10T11:29:58.535Z,1033.89
2017-06-10T11:30:58.539Z,1033.81
2017-06-10T11:31:58.542Z,1033.72
2017-06-10T11:32:58.546Z,1033.61
2017-06-10T11:33:58.549Z,1033.51
2017-06-10T11:34:58.552Z,1033.51
2017-06-10T11:35:58.557Z,1033.46
2017-06-10T11:36:58.559Z,1033.42
2017-06-10T11:37:58.562Z,1033.26
2017-06-10T11:38:58.567Z,1033.21
2017-06-10T11:39:58.569Z,1033.13
2017-06-10T11:40:58.572Z,1033.18
2017-06-10T11:41:58.577Z,1033.14
2017-06-10T11:42:58.579Z,1033.1
2017-06-10T11:43:58.583Z,1033.03
2017-06-10T11:44:58.588Z,1032.96
2017-06-10T11:45:58.591Z,1032.93
2017-06-10T11:46:58.594Z,1032.91
2017-06-10T11:47:58.600Z,1032.91
2017-06-10T11:48:58.602Z,1032.98
2017-06-10T11:49:58.606Z,1032.98
2017-06-10T11:50:58.612Z,1033
2017-06-10T11:51:58.616Z,1032.96
2017-06-10T11:52:58.619Z,1033.07
2017-06-10T11:53:58.623Z,1033.08
2017-06-10T11:54:58.628Z,1033.1
2017-06-10T11:55:58.633Z,1033.15
2017-06-10T11:56:58.636Z,1033.11
2017-06-10T11:57:58.641Z,1032.93
2017-06-10T11:58:58.645Z,1033
2017-06-10T11:59:58.650Z,1032.99
2017-06-10T12:00:58.653Z,1032.93
2017-06-10T12:01:58.658Z,1032.87
2017-06-10T12:02:58.663Z,1032.83
2017-06-10T12:03:58.667Z,1032.77
2017-06-10T12:04:58.672Z,1032.78
2017-06-10T12:05:58.676Z,1032.8
2017-06-10T12:06:58.683Z,1032.82
2017-06-10T12:07:58.686Z,1032.84
2017-06-10T12:08:58.690Z,1032.95
2017-06-10T12:09:58.699Z,1032.86